createdAt,value
2018-08-18T00:01:28.970Z,17.67
2018-08-18T00:04:19.367Z,14.20
2018-08-18T00:06:47.166Z,16.40
2018-08-18T00:09:31.056Z,14.83
2018-08-18T00:11:59.731Z,16.53
2018-08-18T00:14:26.725Z,19.43
2018-08-18T00:16:59.757Z,15.67
2018-08-18T00:19:26.663Z,21.20
2018-08-18T00:21:54.142Z,19.50
2018-08-18T00:24:21.098Z,19.27
2018-08-18T00:26:48.026Z,17.13
2018-08-18T00:29:15.745Z,18.97
2018-08-18T00:31:43.802Z,21.53
2018-08-18T00:34:12.785Z,18.70
2018-08-18T00:36:39.650Z,16.97
2018-08-18T00:39:07.942Z,17.53
2018-08-18T00:41:36.309Z,20.20
2018-08-18T00:44:09.764Z,20.77
2018-08-18T00:49:37.222Z,16.97
2018-08-18T00:52:09.582Z,18.13
2018-08-18T00:54:39.588Z,18.67
2018-08-18T00:57:25.538Z,21.50
2018-08-18T00:59:54.802Z,21.60
2018-08-18T01:02:25.254Z,18.67
2018-08-18T01:04:57.551Z,21.62
2018-08-18T01:07:28.359Z,20.30
2018-08-18T01:09:57.735Z,21.03
2018-08-18T01:12:27.741Z,19.60
2018-08-18T01:14:57.795Z,22.57
2018-08-18T01:17:25.006Z,18.60
2018-08-18T01:19:57.804Z,20.83
2018-08-18T01:22:27.787Z,22.22
2018-08-18T01:24:55.268Z,23.05
2018-08-18T01:27:22.355Z,20.40
2018-08-18T01:30:05.417Z,20.63
2018-08-18T01:32:33.867Z,22.65
2018-08-18T01:35:05.446Z,20.80
2018-08-18T01:37:35.940Z,26.53
2018-08-18T01:40:02.914Z,20.97
2018-08-18T01:42:31.819Z,22.50
2018-08-18T01:45:02.770Z,22.50
2018-08-18T01:47:29.799Z,22.62
2018-08-18T01:49:58.216Z,22.30
2018-08-18T01:52:25.339Z,21.60
2018-08-18T01:54:53.198Z,21.27
2018-08-18T01:57:21.076Z,21.90
2018-08-18T01:59:51.058Z,23.13
2018-08-18T02:02:26.598Z,25.50
2018-08-18T02:05:12.771Z,18.83
2018-08-18T02:07:41.235Z,20.40
2018-08-18T02:10:08.110Z,18.10
2018-08-18T02:12:37.371Z,19.90
2018-08-18T02:15:04.299Z,24.27
2018-08-18T02:17:33.214Z,19.30
2018-08-18T02:20:00.174Z,25.60
2018-08-18T02:22:30.757Z,16.70
2018-08-18T02:25:01.182Z,22.93
2018-08-18T02:27:28.146Z,27.07
2018-08-18T02:30:07.523Z,16.57
2018-08-18T02:32:38.598Z,20.08
2018-08-18T02:35:08.419Z,17.03
2018-08-18T02:37:36.324Z,18.80
2018-08-18T02:40:05.643Z,18.70
2018-08-18T02:42:33.207Z,20.03
2018-08-18T02:45:00.074Z,22.20
2018-08-18T02:47:28.084Z,22.13
2018-08-18T02:49:58.845Z,21.02
2018-08-18T02:52:28.194Z,21.60
2018-08-18T02:55:00.719Z,20.48
2018-08-18T02:57:35.074Z,22.15
2018-08-18T03:00:03.108Z,16.07
2018-08-18T03:02:30.148Z,17.63
2018-08-18T03:05:03.583Z,16.17
2018-08-18T03:07:38.799Z,19.20
2018-08-18T03:10:28.628Z,25.33
2018-08-18T03:13:05.554Z,19.97
2018-08-18T03:15:51.055Z,19.77
2018-08-18T03:18:30.013Z,19.93
2018-08-18T03:20:59.697Z,21.17
2018-08-18T03:23:27.246Z,22.20
2018-08-18T03:25:54.215Z,23.90
2018-08-18T03:28:22.900Z,20.37
2018-08-18T03:30:54.284Z,23.27
2018-08-18T03:33:24.950Z,22.57
2018-08-18T03:35:53.812Z,19.40
2018-08-18T03:38:22.843Z,20.13
2018-08-18T03:40:51.890Z,20.37
2018-08-18T03:43:20.885Z,20.73
2018-08-18T03:45:50.924Z,28.30
2018-08-18T03:48:18.810Z,20.03
2018-08-18T03:50:49.274Z,23.87
2018-08-18T03:53:19.211Z,25.75
2018-08-18T03:55:54.196Z,23.65
2018-08-18T03:58:51.951Z,18.03
2018-08-18T04:01:36.843Z,19.90
2018-08-18T04:04:05.080Z,20.50
2018-08-18T04:06:33.271Z,22.70
2018-08-18T04:09:01.359Z,21.77
2018-08-18T04:11:28.294Z,20.37
2018-08-18T04:13:58.288Z,22.20
2018-08-18T04:16:31.501Z,21.10
2018-08-18T04:19:00.630Z,27.73
2018-08-18T04:21:27.607Z,21.40
2018-08-18T04:23:56.388Z,24.43
2018-08-18T04:26:24.786Z,22.30
2018-08-18T04:28:51.759Z,17.97
2018-08-18T04:31:23.713Z,17.93
2018-08-18T04:33:51.764Z,21.97
2018-08-18T04:36:20.322Z,21.97
2018-08-18T04:38:50.224Z,21.73
2018-08-18T04:41:18.215Z,20.97
2018-08-18T04:43:45.217Z,23.30
2018-08-18T04:46:15.111Z,20.87
2018-08-18T04:48:45.060Z,23.40
2018-08-18T04:51:19.001Z,21.52
2018-08-18T04:53:46.883Z,23.00
2018-08-18T04:56:16.350Z,22.77
2018-08-18T04:58:47.323Z,20.43
2018-08-18T05:01:16.908Z,21.73
2018-08-18T05:04:08.031Z,22.23
2018-08-18T05:06:37.505Z,22.13
2018-08-18T05:09:08.063Z,22.83
2018-08-18T05:11:36.038Z,23.18
2018-08-18T05:14:04.171Z,24.05
2018-08-18T05:16:31.082Z,22.62
2018-08-18T05:18:58.031Z,21.43
2018-08-18T05:21:27.999Z,20.97
2018-08-18T05:23:55.915Z,22.13
2018-08-18T05:26:27.310Z,23.83
2018-08-18T05:28:57.287Z,19.10
2018-08-18T05:31:30.855Z,20.50
2018-08-18T05:34:00.720Z,16.17
2018-08-18T05:36:28.387Z,18.73
2018-08-18T05:38:58.318Z,20.15
2018-08-18T05:41:29.388Z,17.63
2018-08-18T05:44:04.019Z,16.33
2018-08-18T05:46:34.566Z,16.23
2018-08-18T05:49:07.143Z,16.87
2018-08-18T05:51:40.071Z,20.73
2018-08-18T05:54:10.358Z,17.00
2018-08-18T05:56:38.986Z,19.32
2018-08-18T05:59:08.005Z,21.77
2018-08-18T06:01:37.315Z,17.62
2018-08-18T06:04:10.302Z,15.77
2018-08-18T06:06:37.670Z,17.10
2018-08-18T06:09:06.282Z,17.70
2018-08-18T06:11:39.646Z,16.13
2018-08-18T06:14:06.947Z,15.57
2018-08-18T06:16:45.831Z,17.87
2018-08-18T06:19:12.767Z,16.80
2018-08-18T06:21:39.681Z,16.87
2018-08-18T06:24:06.573Z,16.67
2018-08-18T06:26:39.656Z,18.90
2018-08-18T06:29:08.506Z,14.60
2018-08-18T06:31:56.139Z,17.82
2018-08-18T06:34:24.051Z,18.47
2018-08-18T06:36:51.999Z,16.53
2018-08-18T06:39:20.878Z,18.73
2018-08-18T06:41:49.072Z,17.10
2018-08-18T06:44:16.826Z,17.40
2018-08-18T06:46:49.592Z,20.87
2018-08-18T06:49:19.634Z,18.83
2018-08-18T06:51:47.519Z,18.55
2018-08-18T06:54:16.552Z,15.80
2018-08-18T06:56:43.479Z,17.63
2018-08-18T06:59:10.963Z,14.77
2018-08-18T07:01:37.986Z,15.37
2018-08-18T07:04:13.495Z,13.67
2018-08-18T07:06:42.571Z,15.88
2018-08-18T07:09:09.526Z,13.93
2018-08-18T07:11:37.415Z,14.80
2018-08-18T07:14:04.384Z,16.27
2018-08-18T07:16:31.365Z,13.83
2018-08-18T07:19:00.965Z,14.60
2018-08-18T07:21:27.774Z,13.33
2018-08-18T07:23:56.487Z,14.20
2018-08-18T07:26:24.577Z,13.33
2018-08-18T07:28:59.233Z,15.73
2018-08-18T07:31:25.938Z,24.50
2018-08-18T07:33:52.802Z,16.83
2018-08-18T07:36:20.463Z,15.00
2018-08-18T07:38:47.431Z,13.70
2018-08-18T07:41:14.888Z,15.57
2018-08-18T07:43:41.763Z,17.50
2018-08-18T07:46:09.412Z,15.83
2018-08-18T07:48:36.413Z,16.62
2018-08-18T07:51:03.371Z,16.60
2018-08-18T07:53:31.347Z,18.03
2018-08-18T07:55:58.199Z,15.90
2018-08-18T07:58:26.090Z,15.63
2018-08-18T08:00:56.995Z,11.93
2018-08-18T08:03:23.892Z,10.53
2018-08-18T08:05:50.909Z,13.67
2018-08-18T08:08:20.735Z,13.50
2018-08-18T08:10:53.050Z,15.17
2018-08-18T08:13:20.903Z,19.43
2018-08-18T08:15:47.798Z,15.80
2018-08-18T08:18:15.279Z,14.67
2018-08-18T08:20:42.904Z,15.20
2018-08-18T08:23:09.867Z,13.40
2018-08-18T08:25:36.865Z,13.60
2018-08-18T08:28:05.060Z,16.03
2018-08-18T08:30:31.903Z,15.87
2018-08-18T08:32:59.502Z,12.10
2018-08-18T08:35:27.829Z,12.50
2018-08-18T08:37:55.172Z,14.50
2018-08-18T08:40:22.635Z,13.93
2018-08-18T08:42:50.644Z,16.90
2018-08-18T08:45:19.676Z,12.73
2018-08-18T08:47:48.787Z,10.60
2018-08-18T08:50:18.725Z,9.50
2018-08-18T08:52:51.844Z,12.80
2018-08-18T08:55:20.811Z,11.73
2018-08-18T08:57:47.723Z,10.97
2018-08-18T09:00:19.385Z,15.13
2018-08-18T09:02:46.963Z,12.70
2018-08-18T09:05:14.519Z,12.93
2018-08-18T09:07:41.774Z,13.45
2018-08-18T09:10:09.897Z,13.30
2018-08-18T09:12:37.541Z,10.80
2018-08-18T09:15:05.769Z,13.70
2018-08-18T09:17:33.539Z,11.00
2018-08-18T09:20:05.888Z,15.00
2018-08-18T09:22:41.050Z,10.58
2018-08-18T09:25:13.838Z,13.40
2018-08-18T09:27:49.067Z,15.00
2018-08-18T09:30:16.083Z,8.20
2018-08-18T09:32:42.982Z,12.33
2018-08-18T09:35:12.935Z,13.15
2018-08-18T09:37:39.914Z,9.43
2018-08-18T09:40:09.868Z,10.65
2018-08-18T09:42:42.963Z,13.75
2018-08-18T09:45:10.283Z,136.23
2018-08-18T09:47:38.261Z,61.67
2018-08-18T09:50:05.196Z,25.97
2018-08-18T09:52:32.079Z,189.83
2018-08-18T09:54:59.571Z,391.60
2018-08-18T09:57:27.031Z,251.57
2018-08-18T09:59:54.971Z,253.43
2018-08-18T10:02:22.552Z,255.47
2018-08-18T10:04:49.532Z,30.73
2018-08-18T10:07:16.501Z,47.10
2018-08-18T10:09:43.453Z,14.68
2018-08-18T10:12:10.443Z,127.33
2018-08-18T10:14:37.399Z,18.10
2018-08-18T10:17:04.372Z,20.13
2018-08-18T10:19:32.121Z,13.03
2018-08-18T10:22:00.251Z,11.37
2018-08-18T10:24:27.207Z,15.43
2018-08-18T10:26:59.747Z,11.83
2018-08-18T10:29:26.666Z,18.37
2018-08-18T10:31:55.820Z,14.07
2018-08-18T10:34:23.996Z,14.43
2018-08-18T10:36:54.177Z,130.23
2018-08-18T10:39:21.127Z,21.40
2018-08-18T10:41:58.063Z,14.83
2018-08-18T10:44:25.562Z,13.03
2018-08-18T10:47:04.972Z,14.10
2018-08-18T10:49:44.018Z,12.37
2018-08-18T10:52:22.841Z,14.10
2018-08-18T10:54:49.822Z,11.00
2018-08-18T10:57:44.776Z,11.05
2018-08-18T11:00:13.996Z,13.43
2018-08-18T11:02:44.439Z,11.40
2018-08-18T11:05:11.691Z,11.63
2018-08-18T11:07:38.689Z,11.47
2018-08-18T11:10:06.099Z,12.43
2018-08-18T11:12:33.999Z,10.30
2018-08-18T11:15:01.589Z,12.87
2018-08-18T11:17:29.854Z,9.87
2018-08-18T11:20:02.594Z,10.30
2018-08-18T11:22:52.480Z,15.70
2018-08-18T11:25:30.144Z,9.90
2018-08-18T11:27:58.715Z,12.53
2018-08-18T11:30:26.787Z,10.70
2018-08-18T11:32:58.934Z,13.60
2018-08-18T11:35:30.159Z,13.00
2018-08-18T11:38:06.776Z,11.60
2018-08-18T11:40:34.864Z,10.73
2018-08-18T11:43:09.227Z,11.08
2018-08-18T11:45:40.044Z,9.93
2018-08-18T11:48:24.746Z,11.00
2018-08-18T11:51:01.211Z,10.05
2018-08-18T11:53:32.919Z,11.80
2018-08-18T11:56:00.615Z,11.20
2018-08-18T11:58:28.183Z,9.63
2018-08-18T12:03:47.891Z,9.50
2018-08-18T12:06:17.767Z,10.70
2018-08-18T12:08:57.313Z,9.20
2018-08-18T12:11:28.910Z,10.30
2018-08-18T12:14:03.305Z,11.53
2018-08-18T12:16:36.757Z,10.03
2018-08-18T12:19:06.778Z,11.55
2018-08-18T12:21:47.074Z,8.97
2018-08-18T12:24:20.584Z,9.50
2018-08-18T12:26:59.279Z,11.80
2018-08-18T12:29:29.817Z,10.30
2018-08-18T12:31:57.860Z,8.90
2018-08-18T12:34:31.303Z,9.60
2018-08-18T12:37:01.276Z,9.70
2018-08-18T12:39:31.303Z,9.45
2018-08-18T12:41:59.171Z,8.13
2018-08-18T12:44:33.506Z,8.50
2018-08-18T12:47:04.524Z,9.93
2018-08-18T12:49:37.293Z,7.90
2018-08-18T12:52:08.663Z,79.12
2018-08-18T12:54:42.232Z,9.40
2018-08-18T12:57:10.197Z,12.23
2018-08-18T12:59:43.830Z,7.90
2018-08-18T13:02:20.712Z,19.43
2018-08-18T13:04:59.796Z,239.77
2018-08-18T13:07:41.394Z,12.17
2018-08-18T13:10:25.756Z,15.72
2018-08-18T13:12:54.067Z,12.10
2018-08-18T13:15:22.694Z,11.75
2018-08-18T13:17:49.692Z,7.60
2018-08-18T13:20:20.690Z,12.83
2018-08-18T13:22:49.008Z,7.95
2018-08-18T13:25:17.747Z,8.20
2018-08-18T13:27:52.083Z,7.70
2018-08-18T13:30:25.347Z,7.95
2018-08-18T13:32:56.721Z,9.10
2018-08-18T13:35:25.185Z,8.17
2018-08-18T13:38:04.934Z,8.47
2018-08-18T13:40:34.709Z,7.00
2018-08-18T13:43:03.191Z,8.30
2018-08-18T13:45:47.477Z,7.13
2018-08-18T13:48:16.492Z,7.27
2018-08-18T13:50:47.496Z,8.87
2018-08-18T13:53:15.479Z,7.10
2018-08-18T13:55:45.347Z,9.17
2018-08-18T13:58:20.484Z,7.30
2018-08-18T14:00:59.730Z,6.93
2018-08-18T14:03:30.607Z,6.90
2018-08-18T14:06:00.591Z,8.93
2018-08-18T14:08:28.225Z,6.73
2018-08-18T14:10:55.236Z,7.70
2018-08-18T14:13:23.283Z,7.30
2018-08-18T14:15:57.258Z,6.47
2018-08-18T14:18:25.210Z,6.70
2018-08-18T14:21:02.982Z,6.40
2018-08-18T14:23:29.942Z,7.20
2018-08-18T14:25:57.639Z,7.75
2018-08-18T14:28:25.302Z,6.50
2018-08-18T14:30:53.353Z,6.30
2018-08-18T14:33:23.319Z,6.47
2018-08-18T14:35:52.210Z,7.37
2018-08-18T14:38:20.635Z,5.90
2018-08-18T14:40:49.270Z,6.43
2018-08-18T14:43:22.715Z,6.87
2018-08-18T14:45:50.457Z,7.40
2018-08-18T14:48:17.317Z,6.30
2018-08-18T14:50:47.532Z,5.80
2018-08-18T14:53:25.292Z,6.20
2018-08-18T14:55:53.774Z,6.00
2018-08-18T14:58:30.301Z,8.90
2018-08-18T15:01:04.184Z,6.03
2018-08-18T15:03:31.207Z,6.28
2018-08-18T15:05:59.230Z,5.97
2018-08-18T15:08:26.775Z,4.95
2018-08-18T15:10:53.704Z,5.43
2018-08-18T15:13:20.677Z,4.47
2018-08-18T15:15:47.682Z,6.70
2018-08-18T15:18:15.710Z,4.78
2018-08-18T15:20:43.151Z,6.33
2018-08-18T15:23:11.039Z,6.80
2018-08-18T15:25:39.755Z,5.53
2018-08-18T15:28:11.658Z,5.63
2018-08-18T15:30:40.554Z,5.53
2018-08-18T15:33:13.314Z,5.63
2018-08-18T15:35:41.323Z,4.90
2018-08-18T15:38:08.764Z,5.17
2018-08-18T15:40:35.738Z,6.50
2018-08-18T15:43:03.427Z,7.00
2018-08-18T15:45:30.809Z,5.70
2018-08-18T15:48:02.486Z,7.13
2018-08-18T15:50:29.503Z,5.78
2018-08-18T15:52:56.457Z,5.05
2018-08-18T15:55:23.371Z,4.90
2018-08-18T15:57:50.378Z,4.30
2018-08-18T16:00:28.704Z,5.20
2018-08-18T16:02:57.184Z,6.60
2018-08-18T16:05:24.366Z,5.33
2018-08-18T16:07:51.753Z,5.00
2018-08-18T16:10:19.362Z,6.37
2018-08-18T16:12:51.634Z,4.50
2018-08-18T16:15:20.948Z,4.30
2018-08-18T16:17:47.849Z,5.70
2018-08-18T16:20:21.551Z,4.83
2018-08-18T16:22:50.088Z,5.33
2018-08-18T16:25:28.126Z,5.30
2018-08-18T16:27:55.786Z,7.50
2018-08-18T16:30:24.995Z,5.87
2018-08-18T16:33:08.678Z,5.70
2018-08-18T16:35:36.775Z,7.67
2018-08-18T16:38:04.356Z,6.00
2018-08-18T16:40:33.886Z,8.27
2018-08-18T16:43:02.415Z,4.70
2018-08-18T16:45:29.376Z,5.77
2018-08-18T16:47:56.359Z,8.03
2018-08-18T16:50:24.850Z,4.47
2018-08-18T16:52:52.881Z,3.93
2018-08-18T16:55:19.810Z,6.22
2018-08-18T16:57:46.854Z,4.17
2018-08-18T17:00:13.906Z,4.83
2018-08-18T17:02:40.839Z,5.25
2018-08-18T17:05:08.278Z,4.73
2018-08-18T17:07:40.382Z,3.33
2018-08-18T17:10:07.372Z,4.50
2018-08-18T17:12:36.280Z,4.15
2018-08-18T17:15:03.815Z,4.50
2018-08-18T17:17:30.754Z,5.47
2018-08-18T17:19:58.324Z,5.75
2018-08-18T17:22:28.270Z,3.23
2018-08-18T17:24:55.237Z,4.90
2018-08-18T17:27:22.203Z,2.77
2018-08-18T17:29:50.798Z,3.57
2018-08-18T17:32:20.326Z,3.70
2018-08-18T17:34:47.351Z,6.15
2018-08-18T17:37:14.309Z,4.80
2018-08-18T17:39:41.250Z,4.60
2018-08-18T17:42:11.190Z,4.10
2018-08-18T17:44:38.215Z,4.60
2018-08-18T17:47:08.180Z,6.90
2018-08-18T17:49:41.295Z,9.03
2018-08-18T17:52:08.284Z,3.50
2018-08-18T17:54:36.955Z,6.90
2018-08-18T17:57:04.565Z,4.40
2018-08-18T17:59:31.693Z,4.43
2018-08-18T18:02:04.447Z,3.70
2018-08-18T18:04:31.459Z,4.23
2018-08-18T18:06:59.668Z,3.00
2018-08-18T18:09:32.427Z,5.43
2018-08-18T18:12:23.404Z,6.63
2018-08-18T18:14:50.399Z,4.85
2018-08-18T18:17:17.371Z,5.95
2018-08-18T18:19:44.959Z,5.45
2018-08-18T18:22:12.054Z,3.97
2018-08-18T18:24:41.801Z,2.97
2018-08-18T18:27:14.110Z,5.07
2018-08-18T18:29:47.330Z,4.00
2018-08-18T18:32:14.295Z,7.60
2018-08-18T18:34:45.998Z,5.53
2018-08-18T18:37:13.993Z,6.23
2018-08-18T18:39:52.264Z,4.50
2018-08-18T18:42:19.155Z,4.53
2018-08-18T18:44:49.079Z,4.40
2018-08-18T18:47:16.966Z,5.70
2018-08-18T18:49:43.891Z,4.53
2018-08-18T18:52:11.361Z,3.90
2018-08-18T18:54:38.264Z,7.40
2018-08-18T18:57:11.279Z,8.50
2018-08-18T18:59:44.167Z,5.70
2018-08-18T19:02:14.162Z,6.43
2018-08-18T19:04:42.021Z,4.73
2018-08-18T19:07:08.999Z,5.93
2018-08-18T19:09:35.947Z,4.93
2018-08-18T19:12:02.838Z,6.33
2018-08-18T19:14:30.314Z,6.07
2018-08-18T19:16:57.226Z,5.57
2018-08-18T19:19:27.151Z,6.10
2018-08-18T19:21:54.168Z,5.60
2018-08-18T19:24:22.882Z,4.72
2018-08-18T19:26:52.126Z,9.30
2018-08-18T19:29:19.779Z,7.43
2018-08-18T19:31:50.399Z,7.08
2018-08-18T19:34:17.380Z,5.92
2018-08-18T19:36:58.054Z,5.10
2018-08-18T19:39:28.162Z,4.93
2018-08-18T19:42:10.799Z,5.30
2018-08-18T19:44:41.130Z,8.88
2018-08-18T19:47:08.237Z,8.67
2018-08-18T19:49:39.739Z,7.00
2018-08-18T19:52:10.288Z,7.17
2018-08-18T19:54:37.599Z,5.93
2018-08-18T19:57:05.432Z,6.80
2018-08-18T19:59:35.479Z,5.97
2018-08-18T20:02:02.532Z,13.30
2018-08-18T20:04:30.450Z,5.78
2018-08-18T20:06:57.407Z,4.37
2018-08-18T20:09:24.947Z,6.90
2018-08-18T20:11:52.159Z,6.10
2018-08-18T20:14:19.151Z,6.83
2018-08-18T20:16:48.143Z,6.37
2018-08-18T20:19:16.236Z,10.00
2018-08-18T20:21:46.222Z,7.63
2018-08-18T20:24:13.167Z,7.27
2018-08-18T20:26:40.202Z,5.50
2018-08-18T20:29:10.196Z,7.60
2018-08-18T20:31:46.750Z,5.40
2018-08-18T20:34:14.587Z,6.90
2018-08-18T20:36:41.564Z,5.00
2018-08-18T20:39:09.422Z,7.33
2018-08-18T20:41:36.438Z,6.40
2018-08-18T20:44:03.395Z,5.80
2018-08-18T20:46:30.354Z,5.73
2018-08-18T20:48:57.997Z,7.37
2018-08-18T20:51:32.390Z,5.70
2018-08-18T20:54:00.159Z,5.40
2018-08-18T20:56:30.098Z,5.37
2018-08-18T20:58:58.005Z,7.00
2018-08-18T21:01:27.949Z,7.33
2018-08-18T21:03:54.926Z,6.15
2018-08-18T21:06:21.851Z,6.57
2018-08-18T21:08:50.526Z,5.97
2018-08-18T21:11:18.519Z,7.30
2018-08-18T21:13:48.112Z,7.90
2018-08-18T21:16:15.202Z,7.90
2018-08-18T21:18:43.170Z,6.13
2018-08-18T21:21:24.159Z,7.40
2018-08-18T21:23:54.314Z,9.10
2018-08-18T21:26:22.995Z,4.90
2018-08-18T21:28:52.411Z,5.45
2018-08-18T21:31:26.558Z,6.30
2018-08-18T21:33:55.353Z,5.77
2018-08-18T21:36:22.311Z,5.05
2018-08-18T21:38:49.243Z,6.90
2018-08-18T21:41:16.264Z,13.50
2018-08-18T21:43:44.735Z,5.30
2018-08-18T21:46:12.542Z,5.97
2018-08-18T21:48:46.456Z,6.00
2018-08-18T21:51:14.103Z,6.37
2018-08-18T21:53:41.288Z,4.80
2018-08-18T21:56:15.706Z,6.80
2018-08-18T21:58:45.702Z,4.60
2018-08-18T22:01:21.768Z,6.87
2018-08-18T22:03:49.681Z,6.03
2018-08-18T22:06:16.728Z,7.22
2018-08-18T22:08:44.539Z,6.67
2018-08-18T22:11:17.447Z,5.87
2018-08-18T22:13:50.743Z,5.10
2018-08-18T22:16:17.830Z,7.22
2018-08-18T22:18:57.703Z,6.33
2018-08-18T22:21:29.490Z,5.12
2018-08-18T22:24:01.068Z,4.83
2018-08-18T22:26:38.351Z,4.83
2018-08-18T22:29:05.271Z,6.08
2018-08-18T22:31:32.686Z,5.03
2018-08-18T22:34:02.492Z,6.20
2018-08-18T22:36:30.539Z,7.37
2018-08-18T22:38:57.978Z,5.13
2018-08-18T22:41:25.039Z,5.43
2018-08-18T22:43:53.382Z,6.70
2018-08-18T22:46:23.443Z,6.33
2018-08-18T22:48:51.131Z,4.97
2018-08-18T22:51:19.947Z,5.77
2018-08-18T22:53:49.091Z,6.00
2018-08-18T22:56:17.231Z,4.00
2018-08-18T22:59:01.059Z,3.67
2018-08-18T23:01:28.003Z,8.70
2018-08-18T23:03:57.986Z,6.00
2018-08-18T23:06:30.121Z,4.83
2018-08-18T23:08:57.046Z,4.27
2018-08-18T23:11:24.027Z,5.70
2018-08-18T23:13:50.935Z,6.13
2018-08-18T23:16:17.849Z,6.15
2018-08-18T23:18:45.862Z,7.30
2018-08-18T23:21:21.696Z,7.87
2018-08-18T23:23:53.730Z,6.27
2018-08-18T23:26:22.558Z,4.40
2018-08-18T23:28:49.522Z,5.33
2018-08-18T23:31:16.470Z,7.10
2018-08-18T23:33:44.066Z,4.63
2018-08-18T23:36:12.053Z,8.07
2018-08-18T23:38:49.581Z,6.57
2018-08-18T23:41:17.071Z,7.60
2018-08-18T23:43:44.049Z,6.33
2018-08-18T23:46:12.023Z,8.57
2018-08-18T23:48:38.983Z,5.37
2018-08-18T23:51:05.758Z,7.87
2018-08-18T23:53:32.893Z,8.50
2018-08-18T23:56:00.102Z,5.75
2018-08-18T23:58:27.693Z,5.60
